Aydlett, North Carolina
Current Conditions -  °F | °C
As of 12:55 AM on Tuesday 27 Jan 2015 (Local Time) from KONX Reporting Station
Moderate Rain Moderate Rain  
Wind Chill: -2°   Ceiling: 900
Heat Index:   Visibility: 7mi
Dew Point:   Wind: 12mph
Humidity: 91%   Direction: 330°NNW
Pressure: 29.61"   Gusts: 18mph
Location:  36.33°N, 75.91°W
Report Text: KONX 270555Z AUTO 33010G16KT 7SM RA BKN009 OVC014 02/01 A2961 RMK AO2 P0003 60003 T00230010 10109 20023
Loading
Personal Weather Stations






























Interactive Weather Map New forecast layout! Learn more

10-Day Weather Forecast

Advertisements
Track Severe Weather on mobile